createdAt,value
2022-08-11T00:01:25.397Z,16.71
2022-08-11T00:03:56.824Z,16.75
2022-08-11T00:06:30.314Z,16.69
2022-08-11T00:08:58.444Z,16.68
2022-08-11T00:11:36.863Z,16.63
2022-08-11T00:14:14.927Z,16.62
2022-08-11T00:16:42.819Z,16.60
2022-08-11T00:19:10.276Z,16.50
2022-08-11T00:22:02.839Z,16.44
2022-08-11T00:24:34.779Z,16.35
2022-08-11T00:27:20.645Z,16.38
2022-08-11T00:29:55.020Z,16.33
2022-08-11T00:32:22.572Z,16.32
2022-08-11T00:34:50.211Z,16.25
2022-08-11T00:37:22.241Z,16.18
2022-08-11T00:39:55.785Z,16.13
2022-08-11T00:42:53.758Z,16.17
2022-08-11T00:45:35.872Z,16.13
2022-08-11T00:48:21.549Z,16.02
2022-08-11T00:51:15.670Z,15.98
2022-08-11T00:53:46.797Z,15.95
2022-08-11T00:56:19.389Z,15.91
2022-08-11T00:58:50.899Z,15.85
2022-08-11T01:01:17.952Z,15.92
2022-08-11T01:04:10.821Z,15.88
2022-08-11T01:08:01.099Z,15.85
2022-08-11T01:10:34.504Z,15.77
2022-08-11T01:13:10.243Z,15.70
2022-08-11T01:16:07.608Z,15.69
2022-08-11T01:18:52.689Z,15.71
2022-08-11T01:21:56.924Z,15.68
2022-08-11T01:24:48.053Z,15.68
2022-08-11T01:27:23.936Z,15.67
2022-08-11T01:30:08.866Z,15.67
2022-08-11T01:32:50.471Z,15.55
2022-08-11T01:35:35.788Z,15.60
2022-08-11T01:38:45.823Z,15.56
2022-08-11T01:41:47.723Z,15.53
2022-08-11T01:44:39.021Z,15.53
2022-08-11T01:47:53.336Z,15.53
2022-08-11T01:50:36.791Z,15.49
2022-08-11T01:53:23.836Z,15.46
2022-08-11T01:56:10.783Z,15.42
2022-08-11T01:59:02.136Z,15.34
2022-08-11T02:01:58.414Z,15.30
2022-08-11T02:04:56.865Z,15.23
2022-08-11T02:07:38.499Z,15.16
2022-08-11T02:11:02.246Z,15.14
2022-08-11T02:13:40.799Z,15.17
2022-08-11T02:16:25.869Z,15.09
2022-08-11T02:19:20.170Z,15.04
2022-08-11T02:22:13.392Z,14.97
2022-08-11T02:25:04.551Z,14.91
2022-08-11T02:27:45.495Z,14.90
2022-08-11T02:30:18.654Z,14.94
2022-08-11T02:33:36.736Z,15.09
2022-08-11T02:36:19.759Z,14.97
2022-08-11T02:38:46.330Z,14.95
2022-08-11T02:41:43.765Z,14.95
2022-08-11T02:44:41.500Z,14.90
2022-08-11T02:47:42.043Z,15.00
2022-08-11T02:50:11.332Z,14.87
2022-08-11T02:52:47.414Z,14.87
2022-08-11T02:55:56.366Z,14.85
2022-08-11T02:58:27.143Z,14.79
2022-08-11T03:01:11.425Z,14.74
2022-08-11T03:04:00.894Z,14.66
2022-08-11T03:06:45.061Z,14.67
2022-08-11T03:09:24.603Z,14.69
2022-08-11T03:12:32.433Z,14.58
2022-08-11T03:15:35.380Z,14.47
2022-08-11T03:18:28.356Z,14.45
2022-08-11T03:21:07.472Z,14.48
2022-08-11T03:23:37.984Z,14.43
2022-08-11T03:26:13.864Z,14.42
2022-08-11T03:29:06.523Z,14.31
2022-08-11T03:31:56.272Z,14.29
2022-08-11T03:34:26.227Z,14.22
2022-08-11T03:37:16.247Z,14.30
2022-08-11T03:40:12.243Z,14.29
2022-08-11T03:43:02.972Z,14.20
2022-08-11T03:46:03.384Z,14.20
2022-08-11T03:49:08.435Z,14.11
2022-08-11T03:52:11.919Z,14.07
2022-08-11T03:54:47.622Z,14.05
2022-08-11T03:57:46.871Z,14.05
2022-08-11T04:00:38.171Z,14.02
2022-08-11T04:03:13.740Z,14.02
2022-08-11T04:06:13.173Z,14.00
2022-08-11T04:09:17.482Z,14.04
2022-08-11T04:11:49.796Z,14.01
2022-08-11T04:15:05.940Z,14.09
2022-08-11T04:17:47.713Z,14.14
2022-08-11T04:20:43.512Z,14.21
2022-08-11T04:24:37.181Z,14.28
2022-08-11T04:26:40.616Z,14.22
2022-08-11T04:29:13.064Z,14.26
2022-08-11T04:31:51.801Z,14.27
2022-08-11T04:34:41.560Z,14.33
2022-08-11T04:37:34.388Z,14.43
2022-08-11T04:40:51.636Z,14.48
2022-08-11T04:43:36.783Z,14.48
2022-08-11T04:46:37.959Z,14.57
2022-08-11T04:50:02.581Z,14.69
2022-08-11T04:52:51.240Z,14.82
2022-08-11T04:55:58.747Z,14.96
2022-08-11T04:58:56.268Z,15.08
2022-08-11T05:01:41.227Z,15.22
2022-08-11T05:05:02.796Z,15.41
2022-08-11T05:08:07.256Z,15.64
2022-08-11T05:11:01.594Z,15.80
2022-08-11T05:13:48.522Z,15.92
2022-08-11T05:16:38.396Z,16.08
2022-08-11T05:19:23.726Z,16.25
2022-08-11T05:22:15.813Z,16.44
2022-08-11T05:25:05.082Z,16.60
2022-08-11T05:28:10.550Z,16.81
2022-08-11T05:31:00.292Z,16.96
2022-08-11T05:34:23.260Z,17.13
2022-08-11T05:36:59.189Z,17.36
2022-08-11T05:40:29.144Z,17.65
2022-08-11T05:43:18.301Z,17.97
2022-08-11T05:46:14.781Z,18.29
2022-08-11T05:49:00.581Z,18.57
2022-08-11T05:51:55.291Z,18.81
2022-08-11T05:54:46.102Z,19.19
2022-08-11T05:57:42.342Z,19.55
2022-08-11T06:00:19.509Z,19.91
2022-08-11T06:02:51.176Z,20.09
2022-08-11T06:05:37.316Z,20.27
2022-08-11T06:08:12.604Z,20.55
2022-08-11T06:10:44.681Z,20.74
2022-08-11T06:13:16.645Z,21.11
2022-08-11T06:15:47.628Z,21.35
2022-08-11T06:18:15.498Z,21.65
2022-08-11T06:20:55.858Z,21.89
2022-08-11T06:23:25.139Z,21.99
2022-08-11T06:25:56.389Z,22.24
2022-08-11T06:28:36.717Z,22.38
2022-08-11T06:31:15.508Z,22.10
2022-08-11T06:33:54.509Z,22.32
2022-08-11T06:36:45.341Z,22.29
2022-08-11T06:39:24.288Z,22.67
2022-08-11T06:42:32.293Z,23.11
2022-08-11T06:45:16.655Z,23.36
2022-08-11T06:47:49.687Z,23.56
2022-08-11T06:50:37.405Z,23.92
2022-08-11T06:53:06.801Z,24.16
2022-08-11T06:55:57.979Z,24.52
2022-08-11T06:58:49.845Z,24.30
2022-08-11T07:01:24.658Z,25.22
2022-08-11T07:04:02.839Z,26.32
2022-08-11T07:07:15.402Z,26.84
2022-08-11T07:10:19.534Z,27.85
2022-08-11T07:13:09.555Z,28.56
2022-08-11T07:16:13.207Z,29.56
2022-08-11T07:19:00.809Z,30.37
2022-08-11T07:22:02.984Z,30.56
2022-08-11T07:25:03.175Z,30.18
2022-08-11T07:28:28.235Z,31.68
2022-08-11T07:31:03.517Z,33.04
2022-08-11T07:34:08.408Z,33.38
2022-08-11T07:36:41.351Z,33.72
2022-08-11T07:39:17.108Z,34.08
2022-08-11T07:41:45.272Z,34.39
2022-08-11T07:44:13.068Z,34.85
2022-08-11T07:47:01.160Z,34.05
2022-08-11T07:49:50.007Z,34.74
2022-08-11T07:52:29.796Z,35.83
2022-08-11T07:55:01.215Z,34.90
2022-08-11T07:58:16.295Z,35.64
2022-08-11T08:01:02.911Z,36.26
2022-08-11T08:03:54.382Z,36.88
2022-08-11T08:06:41.563Z,36.67
2022-08-11T08:09:27.929Z,36.99
2022-08-11T08:12:14.752Z,36.31
2022-08-11T08:15:01.214Z,37.35
2022-08-11T08:18:20.400Z,37.96
2022-08-11T08:20:40.365Z,37.61
2022-08-11T08:23:08.444Z,37.28
2022-08-11T08:25:40.268Z,36.87
2022-08-11T08:28:10.891Z,37.18
2022-08-11T08:30:47.377Z,38.53
2022-08-11T08:33:17.449Z,39.61
2022-08-11T08:35:54.209Z,40.23
2022-08-11T08:38:22.943Z,40.78
2022-08-11T08:40:55.989Z,41.05
2022-08-11T08:43:24.407Z,40.09
2022-08-11T08:45:55.754Z,39.97
2022-08-11T08:48:24.899Z,38.79
2022-08-11T08:51:15.215Z,39.37
2022-08-11T08:53:53.334Z,40.53
2022-08-11T08:56:28.306Z,38.95
2022-08-11T08:58:57.920Z,39.47
2022-08-11T09:01:26.792Z,39.68
2022-08-11T09:04:06.789Z,40.47
2022-08-11T09:06:40.292Z,38.84
2022-08-11T09:09:08.975Z,38.64
2022-08-11T09:11:56.074Z,41.03
2022-08-11T09:14:24.315Z,39.86
2022-08-11T09:16:53.067Z,40.82
2022-08-11T09:19:21.266Z,41.30
2022-08-11T09:22:09.324Z,39.67
2022-08-11T09:24:56.149Z,39.03
2022-08-11T09:27:23.925Z,40.12
2022-08-11T09:29:51.727Z,40.70
2022-08-11T09:32:22.872Z,39.51
2022-08-11T09:34:52.130Z,42.21
2022-08-11T09:37:55.850Z,42.88
2022-08-11T09:40:30.643Z,43.65
2022-08-11T09:43:17.786Z,43.74
2022-08-11T09:45:51.683Z,43.64
2022-08-11T09:48:23.439Z,43.03
2022-08-11T09:50:59.944Z,41.86
2022-08-11T09:53:36.306Z,41.97
2022-08-11T09:56:26.353Z,43.42
2022-08-11T09:58:53.639Z,44.39
2022-08-11T10:01:32.626Z,44.79
2022-08-11T10:04:31.250Z,45.76
2022-08-11T10:07:04.606Z,43.86
2022-08-11T10:09:56.410Z,44.86
2022-08-11T10:12:26.896Z,44.57
2022-08-11T10:15:20.800Z,44.74
2022-08-11T10:18:12.079Z,41.73
2022-08-11T10:20:40.614Z,43.92
2022-08-11T10:23:29.007Z,44.73
2022-08-11T10:26:15.370Z,46.43
2022-08-11T10:29:02.552Z,47.80
2022-08-11T10:31:57.883Z,48.21
2022-08-11T10:34:29.225Z,47.54
2022-08-11T10:36:57.336Z,48.74
2022-08-11T10:39:25.960Z,47.83
2022-08-11T10:42:21.042Z,46.91
2022-08-11T10:45:01.724Z,46.00
2022-08-11T10:47:35.311Z,47.07
2022-08-11T10:50:33.557Z,46.02
2022-08-11T10:53:19.700Z,45.61
2022-08-11T10:56:05.989Z,46.82
2022-08-11T10:58:51.930Z,48.12
2022-08-11T11:01:24.306Z,46.87
2022-08-11T11:03:52.776Z,46.33
2022-08-11T11:06:33.499Z,44.10
2022-08-11T11:09:08.713Z,45.88
2022-08-11T11:11:56.768Z,45.19
2022-08-11T11:14:49.801Z,46.72
2022-08-11T11:17:26.712Z,47.44
2022-08-11T11:19:58.722Z,46.59
2022-08-11T11:22:40.568Z,46.83
2022-08-11T11:25:21.359Z,41.26
2022-08-11T11:28:09.998Z,44.54
2022-08-11T11:31:10.884Z,46.20
2022-08-11T11:34:12.782Z,46.28
2022-08-11T11:36:53.935Z,44.69
2022-08-11T11:39:32.343Z,41.25
2022-08-11T11:42:06.290Z,36.32
2022-08-11T11:44:35.354Z,43.59
2022-08-11T11:47:02.474Z,44.75
2022-08-11T11:49:32.411Z,44.47
2022-08-11T11:52:00.901Z,39.28
2022-08-11T11:54:36.748Z,34.31
2022-08-11T11:57:24.735Z,36.97
2022-08-11T12:00:11.867Z,43.78
2022-08-11T12:02:40.793Z,43.88
2022-08-11T12:05:10.200Z,45.85
2022-08-11T12:08:09.535Z,47.89
2022-08-11T12:10:45.082Z,47.92
2022-08-11T12:13:30.717Z,46.76
2022-08-11T12:16:33.499Z,47.57
2022-08-11T12:18:51.774Z,43.29
2022-08-11T12:21:20.935Z,38.40
2022-08-11T12:24:07.727Z,37.33
2022-08-11T12:27:16.301Z,34.93
2022-08-11T12:29:44.356Z,32.68
2022-08-11T12:32:12.621Z,37.45
2022-08-11T12:34:39.423Z,33.90
2022-08-11T12:37:13.216Z,37.75
2022-08-11T12:40:10.715Z,41.87
2022-08-11T12:42:58.391Z,44.74
2022-08-11T12:45:28.096Z,45.56
2022-08-11T12:48:58.776Z,47.65
2022-08-11T12:51:30.141Z,47.87
2022-08-11T12:54:26.491Z,49.09
2022-08-11T12:57:36.849Z,47.42
2022-08-11T13:00:34.609Z,47.03
2022-08-11T13:03:22.099Z,46.80
2022-08-11T13:05:53.255Z,47.94
2022-08-11T13:08:22.170Z,46.55
2022-08-11T13:11:09.847Z,40.93
2022-08-11T13:13:53.772Z,37.08
2022-08-11T13:16:25.196Z,34.24
2022-08-11T13:18:53.324Z,32.94
2022-08-11T13:21:22.020Z,36.24
2022-08-11T13:24:01.918Z,39.60
2022-08-11T13:26:46.968Z,43.16
2022-08-11T13:29:19.555Z,44.74
2022-08-11T13:31:47.212Z,45.74
2022-08-11T13:34:16.282Z,45.70
2022-08-11T13:36:43.873Z,46.17
2022-08-11T13:39:10.960Z,45.96
2022-08-11T13:41:41.151Z,44.63
2022-08-11T13:44:10.015Z,45.74
2022-08-11T13:46:36.923Z,44.31
2022-08-11T13:49:04.799Z,40.56
2022-08-11T13:51:35.824Z,40.90
2022-08-11T13:54:04.676Z,43.04
2022-08-11T13:56:33.083Z,42.29
2022-08-11T13:59:02.533Z,41.81
2022-08-11T14:02:03.841Z,39.87
2022-08-11T14:04:33.470Z,36.64
2022-08-11T14:07:04.623Z,33.35
2022-08-11T14:09:37.486Z,31.63
2022-08-11T14:12:31.018Z,31.61
2022-08-11T14:15:08.365Z,32.16
2022-08-11T14:17:47.975Z,33.07
2022-08-11T14:20:39.811Z,33.38
2022-08-11T14:23:06.094Z,33.79
2022-08-11T14:26:00.433Z,33.74
2022-08-11T14:28:30.303Z,33.42
2022-08-11T14:31:01.625Z,32.26
2022-08-11T14:33:58.574Z,30.99
2022-08-11T14:36:21.851Z,30.97
2022-08-11T14:38:49.648Z,30.99
2022-08-11T14:41:36.407Z,30.94
2022-08-11T14:44:23.299Z,30.95
2022-08-11T14:47:23.141Z,30.78
2022-08-11T14:50:09.457Z,30.86
2022-08-11T14:52:38.930Z,30.52
2022-08-11T14:55:26.243Z,30.66
2022-08-11T14:57:55.123Z,30.80
2022-08-11T15:00:23.932Z,30.53
2022-08-11T15:03:10.027Z,29.92
2022-08-11T15:05:57.942Z,29.71
2022-08-11T15:08:46.967Z,29.27
2022-08-11T15:11:35.149Z,29.37
2022-08-11T15:14:04.114Z,29.58
2022-08-11T15:16:49.695Z,30.08
2022-08-11T15:19:17.211Z,30.25
2022-08-11T15:22:02.248Z,30.03
2022-08-11T15:24:30.876Z,30.39
2022-08-11T15:27:19.086Z,30.18
2022-08-11T15:30:05.428Z,29.37
2022-08-11T15:32:52.250Z,29.43
2022-08-11T15:35:39.350Z,28.87
2022-08-11T15:38:11.670Z,28.86
2022-08-11T15:41:00.259Z,28.88
2022-08-11T15:43:56.562Z,28.65
2022-08-11T15:46:30.975Z,27.75
2022-08-11T15:49:13.452Z,27.25
2022-08-11T15:52:03.551Z,27.50
2022-08-11T15:54:32.538Z,27.53
2022-08-11T15:57:02.312Z,27.06
2022-08-11T15:59:55.595Z,27.03
2022-08-11T16:02:44.188Z,26.85
2022-08-11T16:05:44.966Z,27.00
2022-08-11T16:08:02.567Z,26.88
2022-08-11T16:10:30.928Z,26.93
2022-08-11T16:13:05.783Z,26.86
2022-08-11T16:16:02.880Z,26.69
2022-08-11T16:18:47.132Z,26.77
2022-08-11T16:21:35.096Z,26.88
2022-08-11T16:27:03.580Z,27.10
2022-08-11T16:27:12.346Z,27.00
2022-08-11T16:29:47.749Z,26.74
2022-08-11T16:32:23.477Z,26.70
2022-08-11T16:35:14.135Z,26.35
2022-08-11T16:38:01.896Z,26.46
2022-08-11T16:40:31.085Z,26.32
2022-08-11T16:43:17.631Z,26.31
2022-08-11T16:46:04.381Z,26.20
2022-08-11T16:48:37.262Z,26.04
2022-08-11T16:51:06.832Z,25.95
2022-08-11T16:53:46.101Z,25.95
2022-08-11T16:56:35.320Z,26.00
2022-08-11T16:59:17.707Z,25.80
2022-08-11T17:01:53.504Z,25.66
2022-08-11T17:04:54.280Z,25.57
2022-08-11T17:07:43.459Z,25.40
2022-08-11T17:10:55.434Z,25.22
2022-08-11T17:13:37.016Z,25.17
2022-08-11T17:16:08.011Z,24.98
2022-08-11T17:18:46.776Z,24.77
2022-08-11T17:21:30.586Z,24.73
2022-08-11T17:24:08.721Z,24.71
2022-08-11T17:26:56.936Z,24.68
2022-08-11T17:29:53.767Z,24.55
2022-08-11T17:32:56.315Z,24.46
2022-08-11T17:35:32.926Z,24.45
2022-08-11T17:38:16.914Z,24.29
2022-08-11T17:41:10.239Z,24.20
2022-08-11T17:44:05.423Z,24.17
2022-08-11T17:46:51.965Z,24.12
2022-08-11T17:49:20.452Z,24.11
2022-08-11T17:52:07.903Z,24.12
2022-08-11T17:54:55.551Z,24.08
2022-08-11T17:57:47.005Z,24.05
2022-08-11T18:00:15.623Z,23.99
2022-08-11T18:03:06.533Z,23.93
2022-08-11T18:05:37.133Z,23.96
2022-08-11T18:08:26.661Z,23.91
2022-08-11T18:11:17.578Z,23.81
2022-08-11T18:14:22.897Z,23.80
2022-08-11T18:17:08.157Z,23.79
2022-08-11T18:19:54.402Z,23.76
2022-08-11T18:22:43.534Z,23.68
2022-08-11T18:25:35.114Z,23.62
2022-08-11T18:28:25.942Z,23.56
2022-08-11T18:31:18.456Z,23.54
2022-08-11T18:34:12.912Z,23.44
2022-08-11T18:37:05.835Z,23.34
2022-08-11T18:39:56.479Z,23.38
2022-08-11T18:42:43.549Z,23.22
2022-08-11T18:45:41.657Z,23.24
2022-08-11T18:48:35.982Z,23.15
2022-08-11T18:51:31.066Z,23.19
2022-08-11T18:54:29.083Z,23.06
2022-08-11T18:57:18.957Z,23.05
2022-08-11T19:00:07.045Z,23.07
2022-08-11T19:02:55.465Z,23.05
2022-08-11T19:06:32.509Z,22.92
2022-08-11T19:08:55.773Z,22.85
2022-08-11T19:11:43.993Z,22.86
2022-08-11T19:14:31.889Z,22.85
2022-08-11T19:17:43.360Z,22.82
2022-08-11T19:20:33.339Z,22.80
2022-08-11T19:23:21.788Z,22.83
2022-08-11T19:26:08.265Z,22.86
2022-08-11T19:28:57.636Z,22.87
2022-08-11T19:31:45.256Z,22.77
2022-08-11T19:34:35.269Z,22.78
2022-08-11T19:37:25.118Z,22.73
2022-08-11T19:40:19.458Z,22.71
2022-08-11T19:43:11.307Z,22.66
2022-08-11T19:46:13.936Z,22.60
2022-08-11T19:49:01.211Z,22.56
2022-08-11T19:51:53.680Z,22.51
2022-08-11T19:54:39.848Z,22.48
2022-08-11T19:57:25.645Z,22.50
2022-08-11T20:00:11.057Z,22.46
2022-08-11T20:02:56.724Z,22.37
2022-08-11T20:05:50.572Z,22.33
2022-08-11T20:08:48.100Z,22.31
2022-08-11T20:11:34.028Z,22.31
2022-08-11T20:14:21.320Z,22.25
2022-08-11T20:17:06.702Z,22.20
2022-08-11T20:19:57.194Z,22.17
2022-08-11T20:22:44.974Z,22.14
2022-08-11T20:25:31.323Z,22.06
2022-08-11T20:28:16.628Z,22.06
2022-08-11T20:31:04.144Z,22.08
2022-08-11T20:33:53.446Z,22.09
2022-08-11T20:36:39.159Z,22.09
2022-08-11T20:39:25.546Z,22.08
2022-08-11T20:42:12.611Z,22.05
2022-08-11T20:44:59.838Z,22.04
2022-08-11T20:47:59.818Z,21.97
2022-08-11T20:50:47.681Z,22.16
2022-08-11T20:53:39.169Z,22.00
2022-08-11T20:56:28.801Z,21.97
2022-08-11T20:59:21.895Z,21.99
2022-08-11T21:02:10.530Z,21.96
2022-08-11T21:05:00.660Z,21.99
2022-08-11T21:07:57.104Z,22.05
2022-08-11T21:13:58.023Z,21.83
2022-08-11T21:16:49.005Z,21.81
2022-08-11T21:20:01.303Z,21.87
2022-08-11T21:22:59.090Z,21.78
2022-08-11T21:25:59.658Z,21.72
2022-08-11T21:28:46.930Z,21.70
2022-08-11T21:31:34.462Z,21.64
2022-08-11T21:34:21.785Z,21.57
2022-08-11T21:37:09.720Z,21.52
2022-08-11T21:39:56.225Z,21.46
2022-08-11T21:42:44.384Z,21.45
2022-08-11T21:45:33.472Z,21.38
2022-08-11T21:48:20.398Z,21.36
2022-08-11T21:51:05.858Z,21.38
2022-08-11T21:53:52.592Z,21.34
2022-08-11T21:56:38.813Z,21.33
2022-08-11T21:59:25.050Z,21.34
2022-08-11T22:02:12.933Z,21.32
2022-08-11T22:05:03.520Z,21.33
2022-08-11T22:07:50.060Z,21.35
2022-08-11T22:10:42.238Z,21.34
2022-08-11T22:13:31.208Z,21.32
2022-08-11T22:16:20.118Z,21.29
2022-08-11T22:19:09.882Z,21.30
2022-08-11T22:22:03.937Z,21.32
2022-08-11T22:24:51.975Z,21.31
2022-08-11T22:27:37.856Z,21.28
2022-08-11T22:30:28.251Z,21.26
2022-08-11T22:33:16.576Z,21.22
2022-08-11T22:36:07.457Z,21.19
2022-08-11T22:38:54.939Z,21.16
2022-08-11T22:41:44.678Z,21.12
2022-08-11T22:44:30.591Z,21.07
2022-08-11T22:47:19.080Z,20.98
2022-08-11T22:50:09.735Z,20.93
2022-08-11T22:52:58.295Z,20.87
2022-08-11T22:55:45.311Z,20.87
2022-08-11T22:58:32.817Z,20.78
2022-08-11T23:01:20.530Z,20.72
2022-08-11T23:04:07.565Z,20.69
2022-08-11T23:06:53.638Z,20.66
2022-08-11T23:09:39.751Z,20.65
2022-08-11T23:12:26.292Z,20.64
2022-08-11T23:15:14.502Z,20.66
2022-08-11T23:18:00.736Z,20.63
2022-08-11T23:20:47.736Z,20.61
2022-08-11T23:23:35.712Z,20.56
2022-08-11T23:26:22.671Z,20.52
2022-08-11T23:29:08.335Z,20.48
2022-08-11T23:31:56.320Z,20.48
2022-08-11T23:35:03.599Z,20.51
2022-08-11T23:37:51.080Z,20.53
2022-08-11T23:40:36.855Z,20.55
2022-08-11T23:43:27.146Z,20.55
2022-08-11T23:46:12.740Z,20.49
2022-08-11T23:48:59.190Z,20.40
2022-08-11T23:51:46.647Z,20.37
2022-08-11T23:54:37.358Z,20.28
2022-08-11T23:57:23.755Z,20.28
